Airfield :







YOU CAN JOIN US ON...

 
LOGIN :

Register | Disclaimer

   EN    FR    IT 

 









Legend :    VFR   Marginal VFR   IFR   Intensive IFR   Very Intensive IFR
Visi :
Ceiling :
>= 8 km
>= 3000ft
5 to 8 km
1000 to 3000 ft
1500m to 5 km
500 to 1000 ft
800 to 1500m
200 to 500 ft
< 800m
< 200 ft
Symbols :   Thunderstorms  Fog  Heavy snow  Heavy precipitations  Wind > 20 kt







- Airport Elevation : 76 ft
- IATA code : EGS


BIEG - Egilsstaðir

CURRENT METAR :
  • 230400Z VRB06KT 9999 FEW015 BKN032 BKN040 M02/M07 Q0994

EXPIRED METARs :
  • 230300Z VRB08KT 9999 FEW015 BKN031 BKN039 M02/M07 Q0992
  • 230200Z VRB07G23KT 9999 FEW015 BKN027 OVC056 M02/M06 Q0989

TAF TAF BIEG
Valid from the 23 at 03:00 until the 24 at 03:00 UTC


230100Z 2303/2403 33020G30KT 9999 SCT025 BKN045 TX02/2316Z TNM03/2309Z
BECMG 2306/2309 20015G25KT
BECMG 2310/2313 19012KT
No reported NOTAMs for that airfield.



MET'MAP, your aeronautical weather chart ! - Copyright ORBIFLY December 2007 - Disclaimer

ORBIFLY MET'MAP TEAM :

Programming & Development : Alexandra Zaïnal
Concept & Development : Baudouin d'Aumeries
Co-Development & Prog : Marc-Olivier Méhu
Technical & hardware support : Manuel Goepfert

Contact : metmap@orbifly.com




SOURCES & CREDITS :

   NOAA